createdAt,value
2024-02-08T00:00:47.662Z,99821.80
2024-02-08T00:03:36.549Z,99823.66
2024-02-08T00:06:07.628Z,99825.61
2024-02-08T00:08:36.538Z,99826.58
2024-02-08T00:11:07.290Z,99825.97
2024-02-08T00:13:36.539Z,99822.91
2024-02-08T00:16:07.925Z,99821.02
2024-02-08T00:18:37.488Z,99821.70
2024-02-08T00:21:11.479Z,99824.54
2024-02-08T00:24:01.217Z,99827.75
2024-02-08T00:26:29.798Z,99826.58
2024-02-08T00:29:01.664Z,99828.98
2024-02-08T00:31:38.037Z,99826.25
2024-02-08T00:34:30.457Z,99825.86
2024-02-08T00:37:01.410Z,99820.70
2024-02-08T00:39:32.638Z,99821.49
2024-02-08T00:42:01.120Z,99815.83
2024-02-08T00:44:52.754Z,99821.85
2024-02-08T00:47:21.243Z,99824.95
2024-02-08T00:49:49.956Z,99822.96
2024-02-08T00:52:19.777Z,99820.77
2024-02-08T00:54:51.387Z,99813.51
2024-02-08T00:57:19.746Z,99814.42
2024-02-08T00:59:48.215Z,99811.59
2024-02-08T01:02:16.570Z,99812.17
2024-02-08T01:04:50.563Z,99810.19
2024-02-08T01:07:19.330Z,99812.33
2024-02-08T01:09:47.672Z,99809.96
2024-02-08T01:12:16.142Z,99816.36
2024-02-08T01:14:44.509Z,99811.68
2024-02-08T01:17:13.523Z,99814.30
2024-02-08T01:19:42.046Z,99811.91
2024-02-08T01:22:12.483Z,99811.73
2024-02-08T01:24:41.954Z,99812.88
2024-02-08T01:27:10.281Z,99812.82
2024-02-08T01:29:38.408Z,99815.55
2024-02-08T01:32:07.214Z,99812.77
2024-02-08T01:34:35.684Z,99813.45
2024-02-08T01:37:04.935Z,99810.04
2024-02-08T01:39:35.663Z,99808.98
2024-02-08T01:42:13.365Z,99809.89
2024-02-08T01:44:47.952Z,99808.43
2024-02-08T01:47:19.419Z,99810.37
2024-02-08T01:50:10.549Z,99814.38
2024-02-08T01:52:43.811Z,99807.19
2024-02-08T01:55:19.231Z,99807.61
2024-02-08T01:57:52.856Z,99813.46
2024-02-08T02:00:24.393Z,99815.23
2024-02-08T02:03:02.388Z,99820.70
2024-02-08T02:05:56.533Z,99820.69
2024-02-08T02:08:34.419Z,99822.12
2024-02-08T02:11:20.641Z,99821.75
2024-02-08T02:13:52.434Z,99813.68
2024-02-08T02:16:24.535Z,99818.75
2024-02-08T02:18:55.313Z,99817.64
2024-02-08T02:21:24.335Z,99818.80
2024-02-08T02:23:53.370Z,99821.25
2024-02-08T02:26:23.431Z,99824.18
2024-02-08T02:28:52.867Z,99828.14
2024-02-08T02:31:25.279Z,99829.60
2024-02-08T02:33:54.615Z,99829.46
2024-02-08T02:36:23.761Z,99826.23
2024-02-08T02:38:52.719Z,99818.19
2024-02-08T02:41:26.356Z,99822.78
2024-02-08T02:43:55.346Z,99822.09
2024-02-08T02:46:24.107Z,99816.73
2024-02-08T02:48:53.206Z,99819.05
2024-02-08T02:51:27.729Z,99816.77
2024-02-08T02:53:55.955Z,99819.98
2024-02-08T02:56:24.280Z,99822.20
2024-02-08T02:58:53.232Z,99825.67
2024-02-08T03:01:23.048Z,99830.75
2024-02-08T03:03:52.503Z,99837.98
2024-02-08T03:06:21.023Z,99834.45
2024-02-08T03:08:49.405Z,99838.75
2024-02-08T03:11:17.670Z,99842.61
2024-02-08T03:13:51.459Z,99844.34
2024-02-08T03:16:27.607Z,99844.86
2024-02-08T03:18:58.091Z,99842.77
2024-02-08T03:21:26.540Z,99840.04
2024-02-08T03:23:58.291Z,99840.67
2024-02-08T03:26:27.341Z,99838.23
2024-02-08T03:28:55.966Z,99837.63
2024-02-08T03:31:27.448Z,99839.95
2024-02-08T03:33:55.855Z,99840.19
2024-02-08T03:36:25.239Z,99846.88
2024-02-08T03:38:54.216Z,99850.23
2024-02-08T03:41:22.829Z,99847.70
2024-02-08T03:43:54.125Z,99851.71
2024-02-08T03:46:22.470Z,99848.27
2024-02-08T03:48:51.526Z,99851.73
2024-02-08T03:51:20.534Z,99846.36
2024-02-08T03:53:49.024Z,99842.47
2024-02-08T03:56:17.858Z,99846.80
2024-02-08T03:58:48.059Z,99848.85
2024-02-08T04:01:16.690Z,99849.30
2024-02-08T04:03:54.184Z,99852.92
2024-02-08T04:06:35.162Z,99853.35
2024-02-08T04:09:17.857Z,99856.15
2024-02-08T04:12:05.322Z,99856.98
2024-02-08T04:14:53.496Z,99861.76
2024-02-08T04:17:35.787Z,99861.34
2024-02-08T04:20:16.106Z,99865.94
2024-02-08T04:22:56.222Z,99868.02
2024-02-08T04:25:46.262Z,99864.59
2024-02-08T04:29:35.048Z,99869.23
2024-02-08T04:32:46.766Z,99871.27
2024-02-08T04:36:16.808Z,99872.50
2024-02-08T04:39:47.056Z,99874.99
2024-02-08T04:42:47.171Z,99872.26
2024-02-08T04:46:07.485Z,99872.18
2024-02-08T04:49:08.129Z,99873.95
2024-02-08T04:52:20.656Z,99873.59
2024-02-08T04:55:25.257Z,99875.83
2024-02-08T04:59:06.877Z,99879.00
2024-02-08T05:02:01.081Z,99879.02
2024-02-08T05:04:37.958Z,99883.65
2024-02-08T05:07:27.882Z,99886.55
2024-02-08T05:10:10.213Z,99888.36
2024-02-08T05:13:09.007Z,99890.49
2024-02-08T05:15:57.919Z,99890.59
2024-02-08T05:18:29.944Z,99890.98
2024-02-08T05:20:58.601Z,99892.27
2024-02-08T05:23:27.002Z,99893.41
2024-02-08T05:25:59.615Z,99888.23
2024-02-08T05:28:31.162Z,99892.61
2024-02-08T05:31:07.028Z,99887.75
2024-02-08T05:33:53.764Z,99890.39
2024-02-08T05:37:02.715Z,99891.01
2024-02-08T05:39:49.424Z,99892.02
2024-02-08T05:43:02.576Z,99893.41
2024-02-08T05:45:34.181Z,99899.88
2024-02-08T05:48:07.552Z,99901.27
2024-02-08T05:50:45.578Z,99900.98
2024-02-08T05:53:17.051Z,99898.53
2024-02-08T05:55:49.232Z,99895.73
2024-02-08T05:58:20.344Z,99896.88
2024-02-08T06:01:02.789Z,99896.01
2024-02-08T06:03:39.154Z,99891.59
2024-02-08T06:06:17.352Z,99894.61
2024-02-08T06:08:47.863Z,99891.41
2024-02-08T06:11:19.515Z,99890.79
2024-02-08T06:13:56.025Z,99892.94
2024-02-08T06:16:34.532Z,99887.73
2024-02-08T06:19:05.863Z,99893.04
2024-02-08T06:21:41.958Z,99888.36
2024-02-08T06:24:25.927Z,99890.74
2024-02-08T06:26:57.363Z,99891.78
2024-02-08T06:29:28.497Z,99896.23
2024-02-08T06:32:13.594Z,99901.61
2024-02-08T06:34:48.490Z,99903.74
2024-02-08T06:37:28.037Z,99907.06
2024-02-08T06:39:59.266Z,99907.27
2024-02-08T06:42:47.168Z,99911.36
2024-02-08T06:45:27.434Z,99913.65
2024-02-08T06:47:58.773Z,99910.27
2024-02-08T06:50:47.581Z,99917.63
2024-02-08T06:53:27.737Z,99913.15
2024-02-08T06:56:07.911Z,99914.39
2024-02-08T06:58:53.983Z,99916.50
2024-02-08T07:01:34.166Z,99913.92
2024-02-08T07:04:14.368Z,99913.31
2024-02-08T07:06:54.344Z,99918.13
2024-02-08T07:09:34.476Z,99917.80
2024-02-08T07:12:14.375Z,99922.52
2024-02-08T07:14:54.504Z,99915.20
2024-02-08T07:17:34.780Z,99906.31
2024-02-08T07:20:14.982Z,99904.54
2024-02-08T07:22:55.134Z,99903.80
2024-02-08T07:25:35.409Z,99902.21
2024-02-08T07:28:15.535Z,99900.52
2024-02-08T07:30:58.003Z,99902.83
2024-02-08T07:33:45.978Z,99900.96
2024-02-08T07:36:26.248Z,99905.73
2024-02-08T07:39:16.418Z,99903.40
2024-02-08T07:41:55.178Z,99905.50
2024-02-08T07:44:24.958Z,99906.80
2024-02-08T07:46:56.381Z,99907.83
2024-02-08T07:49:42.795Z,99913.50
2024-02-08T07:52:20.175Z,99910.88
2024-02-08T07:54:57.846Z,99908.60
2024-02-08T07:57:27.940Z,99910.05
2024-02-08T07:59:59.710Z,99906.34
2024-02-08T08:02:30.687Z,99913.96
2024-02-08T08:05:00.120Z,99919.68
2024-02-08T08:07:28.625Z,99914.64
2024-02-08T08:10:14.912Z,99915.91
2024-02-08T08:12:48.371Z,99916.02
2024-02-08T08:15:18.187Z,99912.27
2024-02-08T08:18:01.815Z,99911.23
2024-02-08T08:20:49.051Z,99910.83
2024-02-08T08:23:27.432Z,99913.17
2024-02-08T08:26:09.396Z,99912.02
2024-02-08T08:28:42.272Z,99910.55
2024-02-08T08:31:29.779Z,99915.35
2024-02-08T08:34:02.394Z,99914.14
2024-02-08T08:36:30.977Z,99904.65
2024-02-08T08:39:09.936Z,99906.61
2024-02-08T08:41:46.458Z,99905.17
2024-02-08T08:45:06.343Z,99908.27
2024-02-08T08:48:02.622Z,99906.40
2024-02-08T08:51:41.319Z,99899.30
2024-02-08T08:54:30.121Z,99904.41
2024-02-08T08:57:26.646Z,99907.64
2024-02-08T09:00:10.805Z,99896.30
2024-02-08T09:03:06.011Z,99905.44
2024-02-08T09:06:04.100Z,99903.02
2024-02-08T09:09:00.014Z,99905.94
2024-02-08T09:11:51.231Z,99916.20
2024-02-08T09:14:54.182Z,99910.50
2024-02-08T09:17:26.882Z,99903.38
2024-02-08T09:20:00.570Z,99904.40
2024-02-08T09:22:41.472Z,99898.84
2024-02-08T09:25:27.374Z,99900.55
2024-02-08T09:28:27.035Z,99914.96
2024-02-08T09:30:59.641Z,99901.09
2024-02-08T09:33:32.165Z,99898.55
2024-02-08T09:36:01.084Z,99897.84
2024-02-08T09:38:44.979Z,99893.89
2024-02-08T09:41:39.990Z,99883.51
2024-02-08T09:44:30.066Z,99891.51
2024-02-08T09:47:09.192Z,99898.05
2024-02-08T09:49:43.935Z,99895.91
2024-02-08T09:52:55.700Z,99895.40
2024-02-08T09:56:11.359Z,99904.09
2024-02-08T09:59:05.219Z,99895.95
2024-02-08T10:01:45.234Z,99891.52
2024-02-08T10:04:17.749Z,99886.73
2024-02-08T10:07:07.028Z,99885.46
2024-02-08T10:09:47.929Z,99879.70
2024-02-08T10:12:22.079Z,99875.60
2024-02-08T10:15:02.082Z,99875.45
2024-02-08T10:17:53.592Z,99874.80
2024-02-08T10:20:33.495Z,99871.61
2024-02-08T10:23:24.436Z,99866.33
2024-02-08T10:26:13.141Z,99863.84
2024-02-08T10:28:43.050Z,99858.25
2024-02-08T10:31:23.664Z,99849.47
2024-02-08T10:34:10.924Z,99846.01
2024-02-08T10:36:46.914Z,99828.23
2024-02-08T10:39:30.793Z,99824.95
2024-02-08T10:42:02.902Z,99823.60
2024-02-08T10:44:35.582Z,99806.44
2024-02-08T10:47:08.413Z,99798.48
2024-02-08T10:49:48.684Z,99799.63
2024-02-08T10:52:22.879Z,99796.02
2024-02-08T10:54:57.640Z,99800.09
2024-02-08T10:57:46.977Z,99805.05
2024-02-08T11:00:37.613Z,99788.11
2024-02-08T11:03:10.288Z,99789.89
2024-02-08T11:05:56.366Z,99788.30
2024-02-08T11:08:26.438Z,99782.55
2024-02-08T11:11:00.492Z,99788.13
2024-02-08T11:13:38.957Z,99781.26
2024-02-08T11:16:21.961Z,99778.05
2024-02-08T11:18:54.549Z,99790.93
2024-02-08T11:21:44.132Z,99775.55
2024-02-08T11:24:37.510Z,99775.13
2024-02-08T11:27:07.687Z,99786.16
2024-02-08T11:29:46.813Z,99762.84
2024-02-08T11:32:20.241Z,99776.87
2024-02-08T11:34:56.335Z,99770.60
2024-02-08T11:37:32.100Z,99764.55
2024-02-08T11:40:03.082Z,99767.72
2024-02-08T11:42:38.630Z,99766.49
2024-02-08T11:45:10.671Z,99764.06
2024-02-08T11:47:42.372Z,99756.23
2024-02-08T11:50:22.315Z,99757.39
2024-02-08T11:52:59.086Z,99765.38
2024-02-08T11:55:30.341Z,99751.09
2024-02-08T11:57:59.826Z,99745.70
2024-02-08T12:00:31.641Z,99737.23
2024-02-08T12:03:02.977Z,99733.83
2024-02-08T12:05:35.520Z,99720.93
2024-02-08T12:08:09.911Z,99727.61
2024-02-08T12:10:40.057Z,99724.73
2024-02-08T12:13:14.339Z,99721.09
2024-02-08T12:15:57.509Z,99726.27
2024-02-08T12:18:29.121Z,99724.53
2024-02-08T12:21:03.378Z,99726.55
2024-02-08T12:23:33.172Z,99720.81
2024-02-08T12:26:05.608Z,99726.84
2024-02-08T12:28:40.345Z,99723.23
2024-02-08T12:31:20.738Z,99711.36
2024-02-08T12:33:53.771Z,99723.50
2024-02-08T12:36:25.638Z,99713.55
2024-02-08T12:38:57.310Z,99712.27
2024-02-08T12:41:25.870Z,99702.61
2024-02-08T12:43:54.656Z,99702.66
2024-02-08T12:46:23.820Z,99710.71
2024-02-08T12:48:52.968Z,99708.77
2024-02-08T12:51:24.676Z,99697.61
2024-02-08T12:54:05.431Z,99694.93
2024-02-08T12:56:35.737Z,99699.07
2024-02-08T12:59:06.467Z,99715.88
2024-02-08T13:01:45.651Z,99706.60
2024-02-08T13:04:19.240Z,99693.30
2024-02-08T13:06:51.917Z,99702.22
2024-02-08T13:09:32.027Z,99691.33
2024-02-08T13:12:16.214Z,99691.12
2024-02-08T13:14:58.375Z,99685.03
2024-02-08T13:17:27.933Z,99692.14
2024-02-08T13:19:59.635Z,99686.40
2024-02-08T13:22:35.604Z,99690.01
2024-02-08T13:25:04.579Z,99687.77
2024-02-08T13:27:35.618Z,99685.90
2024-02-08T13:30:15.729Z,99681.23
2024-02-08T13:32:52.711Z,99673.04
2024-02-08T13:35:24.667Z,99677.48
2024-02-08T13:37:55.850Z,99684.02
2024-02-08T13:40:26.869Z,99680.00
2024-02-08T13:43:00.693Z,99680.36
2024-02-08T13:45:40.153Z,99676.69
2024-02-08T13:48:14.617Z,99676.29
2024-02-08T13:50:45.381Z,99690.98
2024-02-08T13:53:16.565Z,99684.48
2024-02-08T13:55:55.689Z,99688.70
2024-02-08T13:58:27.561Z,99681.02
2024-02-08T14:00:59.586Z,99684.95
2024-02-08T14:03:31.838Z,99685.02
2024-02-08T14:06:04.235Z,99689.45
2024-02-08T14:08:48.220Z,99692.63
2024-02-08T14:11:21.275Z,99698.83
2024-02-08T14:14:00.317Z,99705.23
2024-02-08T14:16:38.498Z,99694.98
2024-02-08T14:19:12.841Z,99701.08
2024-02-08T14:22:07.778Z,99702.25
2024-02-08T14:24:39.965Z,99699.08
2024-02-08T14:27:11.764Z,99700.73
2024-02-08T14:29:45.898Z,99695.98
2024-02-08T14:32:36.663Z,99694.34
2024-02-08T14:35:17.434Z,99700.31
2024-02-08T14:37:53.581Z,99688.50
2024-02-08T14:40:30.343Z,99693.65
2024-02-08T14:43:39.492Z,99689.05
2024-02-08T14:46:38.267Z,99688.19
2024-02-08T14:49:18.799Z,99701.75
2024-02-08T14:51:52.448Z,99704.02
2024-02-08T14:54:20.753Z,99707.73
2024-02-08T14:57:06.184Z,99697.17
2024-02-08T14:59:54.577Z,99689.45
2024-02-08T15:02:30.978Z,99695.95
2024-02-08T15:05:03.514Z,99695.72
2024-02-08T15:07:57.700Z,99704.25
2024-02-08T15:10:44.853Z,99709.98
2024-02-08T15:13:19.830Z,99706.91
2024-02-08T15:15:51.778Z,99703.84
2024-02-08T15:18:31.585Z,99696.46
2024-02-08T15:21:01.406Z,99705.14
2024-02-08T15:23:33.845Z,99703.14
2024-02-08T15:26:14.976Z,99698.27
2024-02-08T15:28:57.207Z,99703.81
2024-02-08T15:31:45.737Z,99708.26
2024-02-08T15:34:39.469Z,99707.48
2024-02-08T15:37:31.921Z,99707.14
2024-02-08T15:40:23.689Z,99704.80
2024-02-08T15:42:52.382Z,99700.05
2024-02-08T15:45:42.377Z,99706.94
2024-02-08T15:48:36.880Z,99704.20
2024-02-08T15:51:29.798Z,99712.52
2024-02-08T15:54:08.368Z,99711.77
2024-02-08T15:56:44.183Z,99719.54
2024-02-08T15:59:41.176Z,99720.02
2024-02-08T16:02:53.156Z,99722.36
2024-02-08T16:05:30.376Z,99727.37
2024-02-08T16:08:19.160Z,99735.55
2024-02-08T16:11:31.503Z,99742.11
2024-02-08T16:14:07.009Z,99738.24
2024-02-08T16:17:33.455Z,99738.20
2024-02-08T16:20:09.921Z,99755.18
2024-02-08T16:23:03.605Z,99757.13
2024-02-08T16:25:46.094Z,99754.98
2024-02-08T16:28:42.444Z,99756.19
2024-02-08T16:31:26.013Z,99755.23
2024-02-08T16:33:56.878Z,99752.54
2024-02-08T16:36:46.164Z,99753.55
2024-02-08T16:39:31.180Z,99756.77
2024-02-08T16:42:01.783Z,99761.06
2024-02-08T16:44:36.546Z,99762.71
2024-02-08T16:47:25.814Z,99770.33
2024-02-08T16:50:24.178Z,99766.98
2024-02-08T16:53:05.267Z,99773.60
2024-02-08T16:55:45.032Z,99772.73
2024-02-08T16:58:30.259Z,99776.40
2024-02-08T17:01:18.483Z,99783.07
2024-02-08T17:04:10.217Z,99785.23
2024-02-08T17:06:54.133Z,99785.55
2024-02-08T17:09:26.345Z,99785.29
2024-02-08T17:12:00.630Z,99786.36
2024-02-08T17:14:39.657Z,99786.08
2024-02-08T17:17:15.371Z,99788.89
2024-02-08T17:19:59.524Z,99793.36
2024-02-08T17:22:40.601Z,99790.50
2024-02-08T17:25:26.185Z,99793.18
2024-02-08T17:28:14.864Z,99788.61
2024-02-08T17:30:54.014Z,99792.92
2024-02-08T17:33:24.149Z,99792.59
2024-02-08T17:35:56.911Z,99789.20
2024-02-08T17:38:29.913Z,99785.10
2024-02-08T17:41:01.337Z,99782.61
2024-02-08T17:43:39.843Z,99783.96
2024-02-08T17:46:10.430Z,99777.09
2024-02-08T17:48:40.769Z,99779.13
2024-02-08T17:51:12.417Z,99780.12
2024-02-08T17:53:46.014Z,99776.23
2024-02-08T17:56:18.741Z,99777.64
2024-02-08T17:58:49.128Z,99779.55
2024-02-08T18:01:18.277Z,99776.57
2024-02-08T18:03:47.965Z,99775.83
2024-02-08T18:06:18.698Z,99770.33
2024-02-08T18:08:48.976Z,99770.52
2024-02-08T18:11:19.003Z,99766.05
2024-02-08T18:13:50.777Z,99764.23
2024-02-08T18:16:20.322Z,99756.39
2024-02-08T18:18:48.943Z,99752.54
2024-02-08T18:21:35.151Z,99755.96
2024-02-08T18:24:07.195Z,99762.23
2024-02-08T18:26:36.519Z,99762.38
2024-02-08T18:29:06.409Z,99759.92
2024-02-08T18:31:36.322Z,99758.40
2024-02-08T18:34:09.971Z,99765.20
2024-02-08T18:36:46.712Z,99765.52
2024-02-08T18:39:28.653Z,99770.36
2024-02-08T18:41:59.670Z,99781.61
2024-02-08T18:44:34.230Z,99794.86
2024-02-08T18:47:10.105Z,99795.66
2024-02-08T18:49:39.800Z,99793.79
2024-02-08T18:52:09.217Z,99792.29
2024-02-08T18:54:45.568Z,99788.95
2024-02-08T18:57:13.783Z,99786.52
2024-02-08T18:59:46.391Z,99787.23
2024-02-08T19:02:17.976Z,99788.84
2024-02-08T19:04:46.217Z,99792.46
2024-02-08T19:07:14.697Z,99789.98
2024-02-08T19:09:44.620Z,99797.67
2024-02-08T19:12:13.815Z,99804.67
2024-02-08T19:14:44.141Z,99808.59
2024-02-08T19:17:14.840Z,99812.73
2024-02-08T19:19:46.413Z,99811.02
2024-02-08T19:22:17.679Z,99808.72
2024-02-08T19:24:47.947Z,99809.71
2024-02-08T19:27:16.346Z,99802.00
2024-02-08T19:29:45.318Z,99799.89
2024-02-08T19:32:20.573Z,99799.94
2024-02-08T19:34:55.395Z,99801.78
2024-02-08T19:37:26.117Z,99807.36
2024-02-08T19:39:55.767Z,99808.96
2024-02-08T19:42:24.305Z,99809.50
2024-02-08T19:44:57.006Z,99804.70
2024-02-08T19:47:56.130Z,99807.23
2024-02-08T19:50:39.020Z,99803.70
2024-02-08T19:53:11.525Z,99799.64
2024-02-08T19:56:09.135Z,99797.46
2024-02-08T19:58:48.440Z,99790.77
2024-02-08T20:01:23.786Z,99799.32
2024-02-08T20:03:53.695Z,99803.68
2024-02-08T20:06:28.748Z,99803.39
2024-02-08T20:09:01.168Z,99807.52
2024-02-08T20:11:29.605Z,99806.34
2024-02-08T20:14:07.897Z,99807.80
2024-02-08T20:16:55.149Z,99805.36
2024-02-08T20:19:31.993Z,99805.59
2024-02-08T20:22:43.059Z,99801.23
2024-02-08T20:25:41.844Z,99799.44
2024-02-08T20:28:10.696Z,99799.60
2024-02-08T20:30:39.890Z,99796.99
2024-02-08T20:33:17.302Z,99801.44
2024-02-08T20:35:56.893Z,99803.38
2024-02-08T20:38:28.929Z,99805.38
2024-02-08T20:41:26.092Z,99805.96
2024-02-08T20:44:11.882Z,99807.22
2024-02-08T20:47:13.020Z,99810.00
2024-02-08T20:50:15.739Z,99806.89
2024-02-08T20:53:34.121Z,99799.52
2024-02-08T20:56:29.404Z,99800.92
2024-02-08T20:59:18.498Z,99799.75
2024-02-08T21:01:58.190Z,99800.91
2024-02-08T21:05:09.280Z,99796.58
2024-02-08T21:08:17.905Z,99790.91
2024-02-08T21:11:39.609Z,99786.88
2024-02-08T21:14:44.205Z,99790.00
2024-02-08T21:17:36.114Z,99789.09
2024-02-08T21:20:48.401Z,99790.45
2024-02-08T21:23:56.563Z,99806.70
2024-02-08T21:27:07.470Z,99815.02
2024-02-08T21:30:47.736Z,99820.45
2024-02-08T21:33:57.951Z,99818.98
2024-02-08T21:37:07.032Z,99807.02
2024-02-08T21:40:47.411Z,99810.63
2024-02-08T21:44:10.219Z,99814.24
2024-02-08T21:47:30.568Z,99815.66
2024-02-08T21:51:14.307Z,99826.14
2024-02-08T21:54:59.925Z,99823.66
2024-02-08T22:25:45.955Z,99822.67
2024-02-08T22:29:01.376Z,99820.08
2024-02-08T22:31:51.014Z,99823.16
2024-02-08T22:34:20.685Z,99822.41
2024-02-08T22:36:49.651Z,99816.19
2024-02-08T22:39:18.160Z,99822.68
2024-02-08T22:41:49.166Z,99820.19
2024-02-08T22:44:18.692Z,99822.45
2024-02-08T22:46:47.037Z,99817.23
2024-02-08T22:49:15.921Z,99812.88
2024-02-08T22:51:48.572Z,99814.86
2024-02-08T22:54:18.355Z,99817.63
2024-02-08T22:56:51.091Z,99813.44
2024-02-08T22:59:21.207Z,99809.38
2024-02-08T23:02:17.122Z,99803.80
2024-02-08T23:05:19.745Z,99800.48
2024-02-08T23:08:16.092Z,99800.38
2024-02-08T23:11:44.333Z,99795.39
2024-02-08T23:14:33.403Z,99792.06
2024-02-08T23:17:26.105Z,99786.55
2024-02-08T23:20:22.772Z,99787.35
2024-02-08T23:23:13.780Z,99787.78
2024-02-08T23:25:56.191Z,99784.74
2024-02-08T23:29:10.387Z,99782.67
2024-02-08T23:32:41.917Z,99780.67
2024-02-08T23:35:40.658Z,99779.71
2024-02-08T23:39:13.074Z,99776.73
2024-02-08T23:42:50.860Z,99775.70
2024-02-08T23:46:03.116Z,99778.48
2024-02-08T23:49:12.246Z,99780.91
2024-02-08T23:52:20.852Z,99783.27
2024-02-08T23:55:33.211Z,99778.99
2024-02-08T23:58:54.247Z,99779.69
